Time;durP1;ratioP1;P1;durP2;ratioP2;P2;SDS_P1;SDS_P2;PMS_P1;PMS_P2;Temp;Humidity;BMP_temperature;BMP_pressure;BME280_temperature;BME280_humidity;BME280_pressure;Samples;Min_cycle;Max_cycle;Signal;HPM_P1;HPM_P2
2022/09/23 00:01:06;;;;;;;11.48;8.45;;;10.30;99.90;;;;;;5047511;28;20034;-78
2022/09/23 00:03:33;;;;;;;14.45;8.88;;;10.30;99.90;;;;;;5051659;28;20046;-79
2022/09/23 00:06:00;;;;;;;15.20;8.82;;;10.30;99.90;;;;;;5046637;28;20093;-78
2022/09/23 00:08:25;;;;;;;11.77;8.90;;;10.30;99.90;;;;;;5060001;28;20395;-79
2022/09/23 00:10:51;;;;;;;16.83;9.93;;;10.30;99.90;;;;;;5047389;28;20044;-77
2022/09/23 00:13:17;;;;;;;14.63;8.65;;;10.30;99.90;;;;;;5045597;28;20530;-79
2022/09/23 00:15:43;;;;;;;13.02;8.88;;;10.30;99.90;;;;;;5048979;28;20151;-78
2022/09/23 00:18:08;;;;;;;12.30;9.27;;;10.20;99.90;;;;;;5071594;28;20118;-79
2022/09/23 00:20:35;;;;;;;14.75;9.93;;;10.20;99.90;;;;;;5044413;28;20066;-78
2022/09/23 00:23:01;;;;;;;19.38;10.30;;;10.20;99.90;;;;;;5043729;28;20052;-78
2022/09/23 00:25:28;;;;;;;17.73;10.40;;;10.20;99.90;;;;;;5063572;28;21054;-79
2022/09/23 00:27:55;;;;;;;16.27;10.07;;;10.20;99.90;;;;;;5061533;28;20169;-79
2022/09/23 00:30:22;;;;;;;17.13;10.40;;;10.10;99.90;;;;;;5063426;28;20097;-77
2022/09/23 00:32:48;;;;;;;15.13;9.85;;;10.10;99.90;;;;;;5044924;28;20127;-76
2022/09/23 00:35:14;;;;;;;18.42;10.10;;;10.10;99.90;;;;;;5060797;28;20024;-77
2022/09/23 00:37:39;;;;;;;17.15;9.90;;;10.10;99.90;;;;;;5044478;28;20047;-79
2022/09/23 00:40:07;;;;;;;17.13;10.48;;;10.10;99.90;;;;;;5045816;28;20043;-78
2022/09/23 00:42:33;;;;;;;16.80;10.55;;;10.00;99.90;;;;;;5062413;28;20070;-79
2022/09/23 00:44:59;;;;;;;15.05;10.18;;;10.00;99.90;;;;;;5060508;28;20463;-79
2022/09/23 00:47:33;;;;;;;17.33;10.90;;;10.00;99.90;;;;;;5040776;28;20058;-78
2022/09/23 00:50:02;;;;;;;17.40;10.13;;;9.90;99.90;;;;;;5062389;28;21727;-79
2022/09/23 00:52:30;;;;;;;13.63;10.10;;;10.00;99.90;;;;;;5062484;28;20043;-78
2022/09/23 00:54:59;;;;;;;16.73;10.45;;;9.90;99.90;;;;;;5059450;28;20044;-77
2022/09/23 00:57:27;;;;;;;20.25;11.00;;;9.80;99.90;;;;;;5045383;28;20032;-77
2022/09/23 00:59:53;;;;;;;14.43;11.13;;;9.90;99.90;;;;;;5058201;28;20162;-77
2022/09/23 01:02:20;;;;;;;16.58;10.25;;;10.00;99.90;;;;;;5045038;28;20050;-78
2022/09/23 01:04:48;;;;;;;16.25;10.75;;;10.00;99.90;;;;;;5048766;28;20064;-78
2022/09/23 01:07:14;;;;;;;17.42;11.18;;;10.00;99.90;;;;;;5039031;28;20365;-78
2022/09/23 01:09:40;;;;;;;15.93;11.43;;;10.00;99.90;;;;;;5042907;28;20504;-77
2022/09/23 01:12:17;;;;;;;21.30;11.05;;;10.00;99.90;;;;;;5058152;28;20372;-79
2022/09/23 01:14:55;;;;;;;14.35;11.40;;;10.10;99.90;;;;;;5058691;28;20059;-79
2022/09/23 01:17:50;;;;;;;16.15;10.60;;;10.10;99.90;;;;;;5043061;28;20498;-77
2022/09/23 01:20:46;;;;;;;16.08;11.18;;;10.10;99.90;;;;;;4978542;28;20154;-77
2022/09/23 01:23:32;;;;;;;18.10;11.63;;;10.00;99.90;;;;;;4978453;28;20050;-79
2022/09/23 01:26:47;;;;;;;17.83;11.38;;;10.00;99.90;;;;;;4961243;28;20046;-78
2022/09/23 01:29:32;;;;;;;16.25;9.98;;;10.10;99.90;;;;;;4949862;28;20050;-77
2022/09/23 01:32:13;;;;;;;12.30;10.32;;;10.00;99.90;;;;;;4943555;28;20629;-78
2022/09/23 01:34:49;;;;;;;14.25;10.30;;;10.00;99.90;;;;;;4954890;28;20077;-79
2022/09/23 01:37:35;;;;;;;17.33;10.40;;;10.00;99.90;;;;;;4943080;28;20125;-79
2022/09/23 01:40:19;;;;;;;14.57;10.93;;;10.10;99.90;;;;;;4946034;28;20042;-79
2022/09/23 01:43:00;;;;;;;14.68;10.23;;;10.10;99.90;;;;;;4945884;28;20100;-78
2022/09/23 01:45:46;;;;;;;14.32;9.57;;;10.10;99.90;;;;;;4942824;28;20057;-78
2022/09/23 01:48:23;;;;;;;16.52;10.32;;;10.10;99.90;;;;;;4942065;28;20144;-78
2022/09/23 01:51:07;;;;;;;17.67;9.95;;;10.10;99.90;;;;;;4944817;28;20065;-77
2022/09/23 01:53:40;;;;;;;12.68;10.40;;;10.10;99.90;;;;;;4943820;28;21512;-77
2022/09/23 01:56:15;;;;;;;15.30;10.57;;;10.10;99.90;;;;;;4951023;28;20129;-77
2022/09/23 01:58:44;;;;;;;13.82;9.82;;;10.10;99.90;;;;;;4990672;28;20070;-77
2022/09/23 02:01:16;;;;;;;17.75;10.20;;;10.10;99.90;;;;;;5010806;28;20116;-78
2022/09/23 02:03:55;;;;;;;12.20;10.15;;;10.10;99.90;;;;;;4970148;28;20070;-78
2022/09/23 02:06:30;;;;;;;13.50;9.60;;;10.00;99.90;;;;;;5071100;28;20068;-77
2022/09/23 02:09:03;;;;;;;15.20;9.93;;;10.10;99.90;;;;;;5063428;28;20044;-79
2022/09/23 02:11:35;;;;;;;14.38;9.93;;;10.10;99.90;;;;;;5078581;28;20040;-76
2022/09/23 02:14:10;;;;;;;14.95;9.90;;;10.00;99.90;;;;;;5053422;28;20049;-77
2022/09/23 02:16:50;;;;;;;16.10;10.07;;;10.10;99.90;;;;;;5062360;28;20045;-77
2022/09/23 02:19:30;;;;;;;13.90;9.90;;;10.00;99.90;;;;;;5045911;28;20040;-77
2022/09/23 02:22:10;;;;;;;14.82;9.80;;;10.00;99.90;;;;;;5059251;28;20071;-79
2022/09/23 02:24:38;;;;;;;12.77;10.05;;;9.90;99.90;;;;;;5053288;28;20607;-78
2022/09/23 02:27:24;;;;;;;12.73;9.43;;;9.90;99.90;;;;;;5050083;28;20391;-77
2022/09/23 02:30:08;;;;;;;17.55;9.82;;;9.80;99.90;;;;;;5059337;28;20036;-77
2022/09/23 02:32:48;;;;;;;16.85;9.77;;;9.70;99.90;;;;;;5024663;28;20052;-78
2022/09/23 02:35:21;;;;;;;15.25;9.90;;;9.70;99.90;;;;;;5028313;28;20078;-78
2022/09/23 02:38:18;;;;;;;14.30;10.05;;;9.70;99.90;;;;;;5040207;28;20037;-78
2022/09/23 02:41:09;;;;;;;15.40;9.43;;;9.60;99.90;;;;;;5026188;28;20051;-77
2022/09/23 02:43:41;;;;;;;11.88;9.30;;;9.60;99.90;;;;;;5044314;28;20036;-79
2022/09/23 02:46:07;;;;;;;13.30;9.07;;;9.60;99.90;;;;;;5039640;28;20036;-78
2022/09/23 02:48:42;;;;;;;16.58;9.40;;;9.50;99.90;;;;;;5040786;28;20043;-77
2022/09/23 02:51:08;;;;;;;14.57;9.18;;;9.40;99.90;;;;;;5042039;28;20055;-77
2022/09/23 02:53:35;;;;;;;12.77;9.50;;;9.50;99.90;;;;;;5039058;28;20048;-77
2022/09/23 02:56:01;;;;;;;16.60;9.60;;;9.50;99.90;;;;;;5042240;28;20331;-77
2022/09/23 02:58:28;;;;;;;13.77;9.45;;;9.40;99.90;;;;;;5040941;28;20040;-78
2022/09/23 03:01:14;;;;;;;17.38;10.10;;;9.50;99.90;;;;;;5044013;28;20388;-78
2022/09/23 03:03:45;;;;;;;16.25;10.45;;;9.40;99.90;;;;;;5031219;28;20083;-77
2022/09/23 03:06:42;;;;;;;16.33;9.98;;;9.50;99.90;;;;;;5032176;28;20044;-76
2022/09/23 03:09:34;;;;;;;12.57;10.20;;;9.40;99.90;;;;;;5032186;28;20409;-77
2022/09/23 03:12:20;;;;;;;13.10;10.48;;;9.30;99.90;;;;;;5029441;28;20048;-76
2022/09/23 03:14:55;;;;;;;14.02;10.07;;;9.30;99.90;;;;;;5056892;28;20051;-78
2022/09/23 03:17:38;;;;;;;13.20;10.55;;;9.30;99.90;;;;;;5080539;28;20051;-77
2022/09/23 03:20:13;;;;;;;14.85;10.70;;;9.20;99.90;;;;;;5068150;28;20035;-77
2022/09/23 03:22:41;;;;;;;;;;;9.20;99.90;;;;;;5048196;28;20496;-77
2022/09/23 03:25:14;;;;;;;15.15;10.73;;;9.20;99.90;;;;;;5063736;28;19916;-77
2022/09/23 03:27:42;;;;;;;15.27;10.48;;;9.10;99.90;;;;;;5069036;28;20055;-78
2022/09/23 03:30:09;;;;;;;14.85;10.85;;;9.10;99.90;;;;;;5045139;28;20193;-78
2022/09/23 03:32:37;;;;;;;14.00;10.45;;;9.10;99.90;;;;;;5065632;28;20102;-78
2022/09/23 03:35:04;;;;;;;16.60;11.35;;;9.20;99.90;;;;;;5046998;28;20043;-77
2022/09/23 03:37:39;;;;;;;13.45;10.50;;;9.10;99.90;;;;;;5068509;28;20039;-76
2022/09/23 03:40:13;;;;;;;13.55;11.02;;;9.10;99.90;;;;;;5070312;28;20040;-77
2022/09/23 03:42:40;;;;;;;15.90;11.07;;;9.20;99.90;;;;;;5048386;28;20044;-77
2022/09/23 03:45:12;;;;;;;13.20;10.88;;;9.10;99.90;;;;;;5048952;28;20044;-77
2022/09/23 03:47:38;;;;;;;15.13;11.15;;;9.10;99.90;;;;;;5054196;28;20044;-78
2022/09/23 03:50:05;;;;;;;14.55;11.00;;;9.10;99.90;;;;;;5059802;28;20029;-77
2022/09/23 03:52:31;;;;;;;17.08;11.02;;;9.10;99.90;;;;;;5042366;28;20129;-76
2022/09/23 03:54:57;;;;;;;12.10;10.57;;;9.10;99.90;;;;;;5050193;28;20035;-76
2022/09/23 03:57:23;;;;;;;16.05;11.00;;;9.00;99.90;;;;;;5086472;28;20352;-78
2022/09/23 03:59:52;;;;;;;13.68;11.45;;;9.10;99.90;;;;;;5037510;28;20044;-77
2022/09/23 04:02:18;;;;;;;12.45;11.05;;;8.90;99.90;;;;;;5075999;28;20081;-80
2022/09/23 04:04:44;;;;;;;15.30;10.80;;;8.90;99.90;;;;;;5041094;28;20164;-77
2022/09/23 04:07:11;;;;;;;15.00;11.60;;;8.90;99.90;;;;;;5068265;28;20448;-78
2022/09/23 04:09:37;;;;;;;16.33;11.88;;;8.90;99.90;;;;;;5051410;28;20102;-79
2022/09/23 04:12:04;;;;;;;19.10;12.23;;;8.90;99.90;;;;;;5065919;28;20142;-78
2022/09/23 04:14:30;;;;;;;16.10;12.13;;;8.80;99.90;;;;;;5038712;28;20055;-78
2022/09/23 04:16:56;;;;;;;14.45;11.60;;;8.80;99.90;;;;;;5047630;28;20043;-77
2022/09/23 04:19:21;;;;;;;13.82;11.90;;;8.80;99.90;;;;;;5069618;28;20028;-76
2022/09/23 04:21:47;;;;;;;13.20;11.55;;;8.80;99.90;;;;;;5072594;28;20062;-78
2022/09/23 04:24:14;;;;;;;15.15;11.80;;;8.80;99.90;;;;;;5069824;28;20122;-78
2022/09/23 04:26:40;;;;;;;17.73;11.80;;;8.80;99.90;;;;;;5051080;28;20036;-78
2022/09/23 04:29:06;;;;;;;15.48;11.77;;;8.80;99.90;;;;;;5062195;28;20040;-78
2022/09/23 04:31:33;;;;;;;14.30;12.00;;;8.80;99.90;;;;;;5064538;28;20437;-77
2022/09/23 04:33:59;;;;;;;17.35;12.68;;;8.70;99.90;;;;;;5069083;28;20051;-77
2022/09/23 04:36:25;;;;;;;14.52;11.98;;;8.70;99.90;;;;;;5054360;28;20522;-78
2022/09/23 04:38:51;;;;;;;16.95;12.45;;;8.70;99.90;;;;;;5066446;28;20570;-79
2022/09/23 04:41:18;;;;;;;17.98;11.82;;;8.70;99.90;;;;;;5070052;28;20043;-78
2022/09/23 04:43:44;;;;;;;16.42;12.18;;;8.70;99.90;;;;;;5059517;28;20090;-78
2022/09/23 04:46:12;;;;;;;16.27;11.57;;;8.80;99.90;;;;;;5072974;28;20466;-79
2022/09/23 04:48:40;;;;;;;16.92;12.23;;;8.70;99.90;;;;;;5068780;28;20047;-78
2022/09/23 04:51:14;;;;;;;18.42;13.07;;;8.70;99.90;;;;;;5087982;28;20540;-79
2022/09/23 04:53:42;;;;;;;16.48;12.80;;;8.70;99.90;;;;;;5067251;28;20049;-78
2022/09/23 04:56:20;;;;;;;17.23;13.00;;;8.70;99.90;;;;;;5064652;28;20042;-77
2022/09/23 04:58:46;;;;;;;15.52;12.77;;;8.70;99.90;;;;;;5056310;28;20144;-79
2022/09/23 05:01:15;;;;;;;16.45;12.80;;;8.80;99.90;;;;;;5057729;28;20087;-77
2022/09/23 05:03:42;;;;;;;17.58;13.70;;;8.80;99.90;;;;;;5053440;28;20048;-78
2022/09/23 05:06:09;;;;;;;16.30;12.23;;;8.70;99.90;;;;;;5052294;28;20790;-79
2022/09/23 05:08:35;;;;;;;17.40;13.40;;;8.80;99.90;;;;;;5068565;28;20367;-78
2022/09/23 05:11:06;;;;;;;19.38;13.55;;;8.70;99.90;;;;;;5066835;28;20052;-78
2022/09/23 05:13:32;;;;;;;16.67;13.27;;;8.80;99.90;;;;;;5055778;28;20537;-78
2022/09/23 05:16:06;;;;;;;20.92;13.30;;;8.90;99.90;;;;;;5065485;28;20044;-79
2022/09/23 05:18:39;;;;;;;14.38;12.85;;;8.80;99.90;;;;;;5046430;28;20142;-79
2022/09/23 05:21:06;;;;;;;15.52;13.60;;;8.80;99.90;;;;;;5066987;28;20054;-78
2022/09/23 05:23:32;;;;;;;17.90;13.50;;;8.80;99.90;;;;;;5061315;28;20120;-79
2022/09/23 05:26:00;;;;;;;17.23;13.38;;;8.80;99.90;;;;;;5065173;28;20043;-79
2022/09/23 05:28:31;;;;;;;16.85;13.50;;;8.70;99.90;;;;;;5063066;28;20032;-79
2022/09/23 05:31:13;;;;;;;14.98;12.68;;;8.80;99.90;;;;;;5039583;28;20118;-78
2022/09/23 05:33:42;;;;;;;18.77;14.10;;;8.80;99.90;;;;;;5063505;28;20044;-78
2022/09/23 05:36:08;;;;;;;16.60;13.38;;;8.80;99.90;;;;;;5064238;28;20033;-78
2022/09/23 05:38:35;;;;;;;18.50;13.40;;;8.80;99.90;;;;;;5085328;28;20039;-78
2022/09/23 05:41:07;;;;;;;18.70;14.50;;;8.80;99.90;;;;;;5067315;28;20494;-77
2022/09/23 05:43:34;;;;;;;18.67;14.02;;;8.80;99.90;;;;;;5051535;28;20036;-77
2022/09/23 05:46:05;;;;;;;17.38;13.57;;;8.90;99.90;;;;;;5081994;28;20040;-78
2022/09/23 05:48:32;;;;;;;16.27;13.50;;;9.00;99.90;;;;;;5067575;28;20043;-77
2022/09/23 05:50:58;;;;;;;15.65;13.95;;;9.10;99.90;;;;;;5085116;28;20063;-78
2022/09/23 05:53:25;;;;;;;19.27;14.38;;;9.10;99.90;;;;;;5067067;28;20048;-77
2022/09/23 05:55:53;;;;;;;20.55;14.20;;;9.20;99.90;;;;;;5083160;28;20089;-78
2022/09/23 05:58:19;;;;;;;17.55;14.20;;;9.20;99.90;;;;;;5077511;28;20075;-78
2022/09/23 06:00:44;;;;;;;17.63;13.85;;;9.20;99.90;;;;;;5063769;28;20518;-77
2022/09/23 06:03:15;;;;;;;19.13;14.35;;;9.30;99.90;;;;;;5061655;28;20428;-78
2022/09/23 06:05:41;;;;;;;17.75;13.15;;;9.30;99.90;;;;;;5049703;28;20123;-78
2022/09/23 06:08:08;;;;;;;16.02;14.02;;;9.30;99.90;;;;;;5069983;28;20390;-78
2022/09/23 06:10:41;;;;;;;15.15;13.65;;;9.40;99.90;;;;;;5071987;28;20032;-78
2022/09/23 06:13:07;;;;;;;21.35;13.82;;;9.40;99.90;;;;;;5052932;28;20429;-78
2022/09/23 06:15:34;;;;;;;21.65;13.73;;;9.50;99.90;;;;;;5045501;28;20071;-78
2022/09/23 06:18:00;;;;;;;21.83;14.20;;;9.50;99.90;;;;;;5034496;28;20048;-78
2022/09/23 06:20:26;;;;;;;16.98;14.30;;;9.60;99.90;;;;;;5063260;28;20176;-80
2022/09/23 06:22:52;;;;;;;21.25;14.60;;;9.60;99.90;;;;;;5050643;28;20440;-78
2022/09/23 06:25:59;;;;;;;21.05;14.50;;;9.70;99.90;;;;;;5062685;28;20045;-78
2022/09/23 06:28:27;;;;;;;14.75;13.35;;;9.70;99.90;;;;;;5043035;28;20150;-79
2022/09/23 06:30:56;;;;;;;16.40;13.93;;;9.70;99.90;;;;;;5060370;28;20394;-80
2022/09/23 06:33:24;;;;;;;18.47;14.87;;;9.70;99.90;;;;;;5073560;28;20053;-79
2022/09/23 06:35:57;;;;;;;18.85;14.07;;;9.80;99.90;;;;;;5057755;28;20048;-79
2022/09/23 06:38:23;;;;;;;15.77;13.35;;;9.80;99.90;;;;;;5076015;28;20041;-80
2022/09/23 06:40:50;;;;;;;17.60;14.23;;;9.90;99.90;;;;;;5058173;28;20759;-79
2022/09/23 06:43:16;;;;;;;19.88;13.35;;;10.00;99.90;;;;;;5077326;28;20056;-77
2022/09/23 06:45:42;;;;;;;18.02;13.60;;;10.00;99.90;;;;;;5058855;28;20041;-77
2022/09/23 06:48:08;;;;;;;19.70;14.38;;;10.10;99.90;;;;;;5071766;28;20104;-76
2022/09/23 06:50:35;;;;;;;17.15;13.52;;;10.20;99.90;;;;;;5048082;28;20041;-79
2022/09/23 06:53:02;;;;;;;15.73;13.48;;;10.20;99.90;;;;;;5046105;28;20132;-76
2022/09/23 06:55:28;;;;;;;19.38;13.90;;;10.30;99.90;;;;;;5046571;28;20059;-77
2022/09/23 06:57:56;;;;;;;15.02;13.38;;;10.40;99.90;;;;;;5058649;28;20048;-80
2022/09/23 07:00:23;;;;;;;20.00;14.30;;;10.40;99.90;;;;;;5046237;28;20068;-78
2022/09/23 07:02:48;;;;;;;15.60;13.07;;;10.50;99.90;;;;;;5051212;28;20040;-79
2022/09/23 07:05:16;;;;;;;16.55;13.00;;;10.50;99.90;;;;;;5050605;28;20403;-80
2022/09/23 07:07:42;;;;;;;18.83;14.45;;;10.60;99.90;;;;;;5051525;28;20071;-79
2022/09/23 07:10:28;;;;;;;16.73;13.50;;;10.60;99.90;;;;;;5063347;28;20706;-80
2022/09/23 07:12:54;;;;;;;18.27;13.82;;;10.60;99.90;;;;;;5059787;28;20067;-78
2022/09/23 07:15:20;;;;;;;18.85;14.10;;;10.70;99.90;;;;;;5047594;28;20045;-78
2022/09/23 07:17:46;;;;;;;18.75;13.98;;;10.60;99.90;;;;;;5037446;28;20470;-79
2022/09/23 07:20:12;;;;;;;22.98;13.43;;;10.60;99.90;;;;;;5052031;28;20049;-78
2022/09/23 07:22:38;;;;;;;15.50;13.88;;;10.60;99.90;;;;;;5035256;28;20041;-77
2022/09/23 07:25:05;;;;;;;20.95;14.07;;;10.70;99.90;;;;;;5035828;28;20746;-79
2022/09/23 07:27:32;;;;;;;16.80;13.65;;;10.70;99.90;;;;;;5045390;28;20060;-78
2022/09/23 07:29:57;;;;;;;20.15;13.70;;;10.80;99.90;;;;;;5047810;28;20048;-78
2022/09/23 07:32:24;;;;;;;15.82;14.02;;;10.80;99.90;;;;;;5043842;28;20052;-79
2022/09/23 07:34:50;;;;;;;15.55;13.90;;;10.80;99.90;;;;;;5042523;28;20500;-78
2022/09/23 07:37:17;;;;;;;17.45;14.25;;;10.90;99.90;;;;;;5036659;28;20140;-78
2022/09/23 07:39:43;;;;;;;17.23;13.85;;;11.00;99.90;;;;;;5050140;28;20137;-78
2022/09/23 07:42:12;;;;;;;19.13;14.55;;;11.10;99.90;;;;;;5045504;28;20040;-77
2022/09/23 07:44:38;;;;;;;16.38;13.85;;;11.20;99.90;;;;;;5062318;28;20072;-79
2022/09/23 07:47:04;;;;;;;23.20;15.07;;;11.30;99.90;;;;;;5028181;28;20413;-79
2022/09/23 07:49:29;;;;;;;20.38;14.55;;;11.30;99.90;;;;;;5044955;28;20131;-77
2022/09/23 07:51:55;;;;;;;16.13;14.35;;;11.40;99.90;;;;;;5046458;28;20044;-78
2022/09/23 07:54:21;;;;;;;21.98;13.70;;;11.50;99.90;;;;;;5045075;28;20053;-79
2022/09/23 07:56:46;;;;;;;15.85;14.05;;;11.50;99.90;;;;;;5027958;28;20440;-78
2022/09/23 07:59:15;;;;;;;17.00;13.80;;;11.70;99.90;;;;;;5029681;28;20167;-79
2022/09/23 08:01:47;;;;;;;18.17;13.45;;;11.70;99.90;;;;;;5030366;28;20044;-80
2022/09/23 08:04:19;;;;;;;19.10;13.50;;;11.80;99.90;;;;;;5050353;28;20040;-79
2022/09/23 08:06:53;;;;;;;18.55;13.02;;;11.90;99.90;;;;;;5029442;28;21205;-77
2022/09/23 08:09:22;;;;;;;17.30;13.80;;;11.90;99.90;;;;;;5011892;28;20048;-78
2022/09/23 08:11:49;;;;;;;18.98;13.73;;;12.00;99.90;;;;;;5030032;28;20061;-78
2022/09/23 08:14:17;;;;;;;16.30;13.38;;;12.00;99.90;;;;;;5054618;28;20058;-76
2022/09/23 08:16:44;;;;;;;16.35;12.85;;;12.00;99.90;;;;;;5068395;28;20150;-77
2022/09/23 08:19:11;;;;;;;15.27;13.50;;;12.10;99.90;;;;;;5036298;28;20050;-78
2022/09/23 08:21:38;;;;;;;19.05;13.45;;;12.20;99.90;;;;;;5053428;28;20155;-77
2022/09/23 08:24:15;;;;;;;14.30;12.27;;;12.30;99.90;;;;;;5070920;28;20055;-78
2022/09/23 08:26:41;;;;;;;17.55;12.95;;;12.40;99.90;;;;;;5069687;28;20194;-76
2022/09/23 08:29:10;;;;;;;14.77;13.18;;;12.50;99.90;;;;;;5047567;28;20039;-79
2022/09/23 08:31:35;;;;;;;15.60;12.40;;;12.60;99.90;;;;;;5070098;28;20048;-77
2022/09/23 08:34:01;;;;;;;16.35;12.70;;;12.70;99.90;;;;;;5067998;28;20056;-76
2022/09/23 08:36:27;;;;;;;16.40;12.93;;;12.80;99.90;;;;;;5070087;28;20166;-77
2022/09/23 08:38:56;;;;;;;13.52;11.10;;;12.90;99.90;;;;;;5051099;28;20356;-76
2022/09/23 08:41:45;;;;;;;17.73;11.95;;;13.00;99.90;;;;;;5066142;28;20048;-79
2022/09/23 08:44:36;;;;;;;14.43;11.63;;;13.10;99.90;;;;;;5066389;28;20051;-76
2022/09/23 08:47:10;;;;;;;13.10;11.57;;;13.30;99.90;;;;;;5069664;28;20169;-78
2022/09/23 08:49:44;;;;;;;17.33;11.63;;;13.40;99.90;;;;;;5052210;28;20119;-79
2022/09/23 08:52:20;;;;;;;15.23;11.70;;;13.50;99.90;;;;;;5050009;28;20184;-80
2022/09/23 08:54:46;;;;;;;17.13;10.70;;;13.60;99.90;;;;;;5067775;28;20066;-80
2022/09/23 08:57:41;;;;;;;15.52;11.07;;;13.70;99.90;;;;;;5052517;28;20542;-78
2022/09/23 09:00:22;;;;;;;14.50;10.63;;;13.80;99.90;;;;;;5062099;28;20490;-79
2022/09/23 09:02:48;;;;;;;14.75;10.68;;;13.80;99.90;;;;;;5066963;28;20040;-78
2022/09/23 09:05:21;;;;;;;14.18;11.63;;;13.80;99.90;;;;;;5069287;28;20048;-78
2022/09/23 09:07:48;;;;;;;14.05;10.88;;;13.90;99.90;;;;;;5051563;28;20382;-79
2022/09/23 09:10:25;;;;;;;15.15;10.38;;;13.90;99.90;;;;;;5071184;28;20051;-80
2022/09/23 09:13:22;;;;;;;13.75;10.50;;;14.00;99.90;;;;;;5068171;28;20052;-79
2022/09/23 09:16:05;;;;;;;16.05;10.63;;;14.00;99.90;;;;;;5048633;28;20066;-79
2022/09/23 09:18:33;;;;;;;15.32;10.80;;;14.10;99.90;;;;;;5039917;28;20119;-77
2022/09/23 09:21:10;;;;;;;21.10;10.98;;;14.20;99.90;;;;;;5038418;28;20048;-77
2022/09/23 09:23:55;;;;;;;19.80;10.40;;;14.50;99.90;;;;;;5051772;28;20403;-78
2022/09/23 09:26:22;;;;;;;13.32;10.55;;;14.60;99.90;;;;;;5050563;28;20453;-79
2022/09/23 09:29:09;;;;;;;12.10;10.80;;;14.60;99.90;;;;;;5048787;28;20084;-78
2022/09/23 09:31:44;;;;;;;11.65;9.73;;;14.60;99.90;;;;;;5042472;28;20040;-78
2022/09/23 09:34:20;;;;;;;;;;;14.60;99.90;;;;;;5042979;28;20055;-79
2022/09/23 09:36:48;;;;;;;19.27;9.55;;;14.80;99.90;;;;;;5045713;28;19932;-78
2022/09/23 09:39:14;;;;;;;13.13;9.07;;;14.80;99.90;;;;;;5046260;28;20044;-78
2022/09/23 09:41:57;;;;;;;12.73;9.27;;;14.90;99.90;;;;;;5035165;28;20044;-77
2022/09/23 09:44:37;;;;;;;10.55;9.15;;;14.90;99.90;;;;;;5049973;28;20064;-78
2022/09/23 09:47:22;;;;;;;16.90;9.48;;;15.00;99.90;;;;;;5031879;28;20086;-80
2022/09/23 09:49:59;;;;;;;;;;;15.10;99.90;;;;;;5039070;28;20152;-78
2022/09/23 09:52:28;;;;;;;11.38;9.13;;;15.10;99.90;;;;;;5026218;28;19958;-77
2022/09/23 09:55:32;;;;;;;13.55;9.38;;;15.20;99.90;;;;;;5020179;28;20539;-79
2022/09/23 09:58:04;;;;;;;13.07;8.85;;;15.10;99.90;;;;;;5047884;28;20121;-78
2022/09/23 10:00:34;;;;;;;12.95;9.23;;;15.10;99.90;;;;;;5028189;28;20048;-79
2022/09/23 10:03:11;;;;;;;9.27;8.27;;;15.10;99.90;;;;;;5031763;28;20152;-80
2022/09/23 10:05:43;;;;;;;10.60;8.60;;;15.20;99.90;;;;;;5038946;28;20140;-81
2022/09/23 10:08:31;;;;;;;12.68;8.90;;;15.30;99.90;;;;;;5024224;28;20061;-79
2022/09/23 10:11:17;;;;;;;12.07;9.30;;;15.30;99.90;;;;;;5044346;28;20186;-81
2022/09/23 10:14:16;;;;;;;13.23;9.30;;;15.20;99.90;;;;;;5029237;28;20058;-80
2022/09/23 10:16:43;;;;;;;14.98;9.40;;;15.20;99.90;;;;;;5060343;28;20055;-80
2022/09/23 10:19:24;;;;;;;11.23;8.63;;;15.30;99.90;;;;;;5044151;28;20395;-79
2022/09/23 10:21:57;;;;;;;15.82;9.20;;;15.30;99.90;;;;;;5065537;28;20052;-81
2022/09/23 10:24:28;;;;;;;12.98;8.45;;;15.30;99.90;;;;;;5059352;28;20066;-80
2022/09/23 10:27:06;;;;;;;14.40;8.77;;;15.40;99.90;;;;;;5046253;28;20037;-81
2022/09/23 10:29:49;;;;;;;15.18;8.52;;;15.40;99.90;;;;;;5048395;28;20075;-79
2022/09/23 10:32:32;;;;;;;16.23;8.93;;;15.40;99.90;;;;;;5064481;28;20041;-81
2022/09/23 10:35:12;;;;;;;13.85;8.80;;;15.50;99.90;;;;;;5064932;28;20073;-80
2022/09/23 10:37:51;;;;;;;14.63;8.88;;;15.60;99.90;;;;;;5054222;28;20388;-80
2022/09/23 10:46:37;;;;;;;12.27;8.50;;;15.80;99.90;;;;;;5063547;28;20052;-80
2022/09/23 10:49:33;;;;;;;11.15;8.88;;;15.90;99.90;;;;;;5042235;28;20060;-80
2022/09/23 10:52:17;;;;;;;17.83;9.10;;;15.90;99.90;;;;;;5043198;28;20367;-81
2022/09/23 10:55:16;;;;;;;11.85;8.38;;;16.00;99.90;;;;;;5046993;28;20032;-79
2022/09/23 10:57:57;;;;;;;18.38;8.10;;;16.00;99.90;;;;;;5060619;28;20052;-80
2022/09/23 11:00:53;;;;;;;10.95;8.20;;;16.20;99.90;;;;;;5061911;28;20066;-78
2022/09/23 11:03:44;;;;;;;13.73;9.02;;;16.30;99.90;;;;;;5042487;28;20045;-80
2022/09/23 11:06:28;;;;;;;14.77;8.85;;;16.20;99.90;;;;;;5043559;28;20044;-80
2022/09/23 11:09:39;;;;;;;11.65;8.35;;;16.30;99.90;;;;;;5044715;28;20044;-78
2022/09/23 11:12:32;;;;;;;15.38;8.40;;;16.40;99.90;;;;;;5010169;28;20048;-81
2022/09/23 11:15:09;;;;;;;14.07;8.73;;;16.40;99.90;;;;;;5006188;28;20140;-78
2022/09/23 11:17:47;;;;;;;14.10;8.93;;;16.40;99.90;;;;;;5004969;28;20089;-78
2022/09/23 11:20:33;;;;;;;14.35;10.23;;;16.50;99.90;;;;;;5019485;28;20048;-78
2022/09/23 11:23:20;;;;;;;19.17;9.60;;;16.50;99.90;;;;;;5038568;28;20049;-80
2022/09/23 11:26:10;;;;;;;12.90;9.25;;;16.40;99.90;;;;;;5029055;28;20140;-80
2022/09/23 11:28:38;;;;;;;13.18;9.13;;;16.50;99.90;;;;;;5026849;28;20123;-81
2022/09/23 11:31:05;;;;;;;14.77;9.48;;;16.30;99.90;;;;;;5004116;28;21882;-78
2022/09/23 11:33:46;;;;;;;13.07;8.68;;;16.30;99.90;;;;;;5029177;28;20041;-78
2022/09/23 11:36:39;;;;;;;12.75;9.50;;;16.30;99.90;;;;;;5018753;28;20128;-77
2022/09/23 11:39:40;;;;;;;14.15;9.45;;;16.20;99.90;;;;;;5002714;28;20522;-80
2022/09/23 11:42:11;;;;;;;13.27;9.27;;;16.30;99.90;;;;;;4956085;28;20110;-81
2022/09/23 11:44:51;;;;;;;18.40;9.82;;;16.30;99.90;;;;;;4943091;28;20054;-78
2022/09/23 11:47:30;;;;;;;14.15;9.75;;;16.30;99.90;;;;;;4956012;28;20141;-76
2022/09/23 11:50:13;;;;;;;12.15;9.85;;;16.20;99.90;;;;;;4969873;28;20113;-79
2022/09/23 11:53:22;;;;;;;14.82;9.27;;;16.30;99.90;;;;;;4973195;28;20124;-78
2022/09/23 11:56:20;;;;;;;13.63;9.90;;;16.30;99.90;;;;;;4962617;28;20133;-79
2022/09/23 11:59:05;;;;;;;15.73;9.23;;;16.40;99.90;;;;;;4958323;28;20455;-79
2022/09/23 12:01:52;;;;;;;;;;;16.40;99.90;;;;;;4972240;28;20132;-79
2022/09/23 12:04:30;;;;;;;12.40;9.18;;;16.50;99.90;;;;;;4965829;28;20374;-79
2022/09/23 12:07:23;;;;;;;17.20;9.32;;;16.60;99.90;;;;;;4967874;28;20061;-78
2022/09/23 12:10:08;;;;;;;12.10;9.82;;;16.60;99.90;;;;;;4973008;28;20046;-79
2022/09/23 12:12:58;;;;;;;16.27;9.75;;;16.60;99.90;;;;;;4966300;28;20062;-78
2022/09/23 12:15:47;;;;;;;18.33;9.75;;;16.60;99.90;;;;;;4984258;28;20086;-79
2022/09/23 12:18:34;;;;;;;12.82;9.18;;;16.60;99.90;;;;;;5007595;28;20048;-80
2022/09/23 12:21:22;;;;;;;12.35;9.30;;;16.60;99.90;;;;;;5077992;28;20044;-78
2022/09/23 12:23:53;;;;;;;17.52;9.55;;;16.70;99.90;;;;;;5069306;28;20071;-79
2022/09/23 12:26:23;;;;;;;14.38;9.85;;;16.70;99.90;;;;;;5055357;28;20094;-79
2022/09/23 12:28:52;;;;;;;14.07;9.45;;;16.80;99.90;;;;;;5056241;28;20044;-76
2022/09/23 12:31:20;;;;;;;11.02;8.65;;;16.80;99.90;;;;;;5066335;28;20043;-78
2022/09/23 12:33:53;;;;;;;13.70;9.10;;;16.90;99.90;;;;;;5050767;28;20135;-80
2022/09/23 12:36:45;;;;;;;15.25;9.23;;;16.90;99.90;;;;;;5062704;28;20044;-77
2022/09/23 12:39:18;;;;;;;17.05;8.43;;;16.80;99.90;;;;;;5074575;28;20052;-78
2022/09/23 12:41:49;;;;;;;14.25;9.43;;;17.00;99.90;;;;;;5063368;28;20051;-78
2022/09/23 12:44:40;;;;;;;15.35;9.52;;;16.90;99.90;;;;;;5060840;28;20096;-80
2022/09/23 12:47:23;;;;;;;14.70;8.90;;;17.00;99.90;;;;;;5062645;28;20155;-79
2022/09/23 12:49:53;;;;;;;15.50;9.18;;;17.00;99.90;;;;;;5063098;28;20044;-80
2022/09/23 12:52:19;;;;;;;11.18;8.93;;;17.00;99.90;;;;;;5066602;28;20054;-79
2022/09/23 12:54:47;;;;;;;17.13;10.15;;;17.00;99.90;;;;;;5052497;28;20376;-78
2022/09/23 12:57:19;;;;;;;14.68;9.90;;;17.00;99.90;;;;;;5045300;28;20104;-77
2022/09/23 12:59:55;;;;;;;16.23;9.75;;;17.00;99.90;;;;;;5061416;28;20047;-78
2022/09/23 13:02:28;;;;;;;20.15;10.05;;;16.90;99.90;;;;;;5043428;28;20056;-80
2022/09/23 13:08:07;;;;;;;19.38;10.15;;;16.90;99.90;;;;;;5062487;28;20514;-81
2022/09/23 13:10:48;;;;;;;12.50;9.75;;;16.80;99.90;;;;;;5065423;28;20086;-77
2022/09/23 13:13:21;;;;;;;11.25;9.38;;;16.80;99.90;;;;;;5046177;28;20043;-79
2022/09/23 13:15:47;;;;;;;15.05;9.82;;;16.80;99.90;;;;;;5062163;28;20123;-79
2022/09/23 13:18:19;;;;;;;12.57;9.80;;;16.70;99.90;;;;;;5041787;28;20048;-80